Time;durP1;ratioP1;P1;durP2;ratioP2;P2;SDS_P1;SDS_P2;PMS_P1;PMS_P2;Temp;Humidity;BMP_temperature;BMP_pressure;BME280_temperature;BME280_humidity;BME280_pressure;Samples;Min_cycle;Max_cycle;Signal;HPM_P1;HPM_P2
2023/07/13 00:02:03;;;;;;;6.68;6.18;;;;;;;30.42;49.53;100753.66;5032278;28;70047;-47
2023/07/13 00:04:36;;;;;;;10.43;8.02;;;;;;;30.49;51.03;100759.84;5032973;28;66446;-47
2023/07/13 00:07:08;;;;;;;11.95;9.38;;;;;;;29.96;51.64;100662.84;5034933;28;70313;-47
2023/07/13 00:09:41;;;;;;;17.88;10.30;;;;;;;30.72;53.77;100775.47;5033457;28;66014;-48
2023/07/13 00:12:39;;;;;;;16.10;10.77;;;;;;;30.67;54.69;100781.59;5030600;28;70448;-46
2023/07/13 00:15:22;;;;;;;16.85;11.73;;;;;;;30.78;55.88;100776.47;5034764;28;66779;-48
2023/07/13 00:17:55;;;;;;;19.95;11.65;;;;;;;30.87;56.48;100778.72;5032609;28;70400;-45
2023/07/13 00:20:27;;;;;;;21.83;14.73;;;;;;;30.95;57.68;100791.13;5035825;28;66129;-45
2023/07/13 00:22:59;;;;;;;17.92;15.95;;;;;;;30.97;58.17;100793.63;5035976;28;69830;-46
2023/07/13 00:25:30;;;;;;;36.20;16.38;;;;;;;30.86;58.82;100768.91;5039846;28;66509;-46
2023/07/13 00:28:02;;;;;;;24.40;16.83;;;;;;;31.00;65.95;100794.00;5034409;28;70264;-47
2023/07/13 00:30:34;;;;;;;27.00;15.25;;;;;;;31.13;62.08;100802.00;5039150;28;66293;-46
2023/07/13 00:33:05;;;;;;;23.73;14.77;;;;;;;31.09;62.88;100781.84;5029388;28;70043;-46
2023/07/13 00:35:47;;;;;;;23.95;15.10;;;;;;;30.59;65.79;100705.19;5033666;28;66516;-47
2023/07/13 00:38:18;;;;;;;;;;;;;;;30.90;67.44;100788.28;5033500;28;70351;-48
2023/07/13 00:40:50;;;;;;;16.05;14.18;;;;;;;31.21;63.53;100778.41;5026690;28;66624;-48
2023/07/13 00:43:23;;;;;;;26.35;14.80;;;;;;;30.75;64.09;100698.41;5036018;28;69961;-45
2023/07/13 00:46:12;;;;;;;24.23;14.55;;;;;;;31.31;64.51;100789.50;5028387;28;66527;-46
2023/07/13 00:48:47;;;;;;;17.27;13.80;;;;;;;31.20;64.72;100765.88;5028109;28;70049;-46
2023/07/13 00:51:24;;;;;;;13.65;12.23;;;;;;;30.92;63.20;100713.88;5028223;28;65959;-47
2023/07/13 00:53:59;;;;;;;14.13;11.25;;;;;;;30.86;61.90;100700.41;5031142;28;70853;-47
2023/07/13 00:56:33;;;;;;;12.00;10.80;;;;;;;30.93;61.89;100706.56;5034431;28;66356;-47
2023/07/13 00:59:07;;;;;;;11.10;9.95;;;;;;;31.49;61.69;100805.81;5027891;28;70158;-46
2023/07/13 01:01:39;;;;;;;14.75;10.20;;;;;;;31.51;61.79;100795.59;5035021;28;66349;-48
2023/07/13 01:04:11;;;;;;;10.65;9.88;;;;;;;31.40;62.00;100788.22;5025374;28;69496;-48
2023/07/13 01:06:43;;;;;;;12.32;9.77;;;;;;;31.19;62.05;100758.81;5030639;28;66301;-47
2023/07/13 01:09:15;;;;;;;10.35;8.70;;;;;;;31.47;62.20;100799.78;5037644;28;69704;-48
2023/07/13 01:11:48;;;;;;;9.75;8.93;;;;;;;31.60;62.22;100815.09;5028554;28;66672;-48
2023/07/13 01:14:19;;;;;;;10.60;8.63;;;;;;;31.58;62.48;100811.75;5028309;28;70264;-48
2023/07/13 01:16:51;;;;;;;10.00;8.27;;;;;;;31.64;62.77;100815.44;5035604;28;65525;-48
2023/07/13 01:19:42;;;;;;;9.00;7.88;;;;;;;31.50;62.73;100798.50;5026844;28;70899;-47
2023/07/13 01:22:16;;;;;;;12.38;7.63;;;;;;;31.68;62.86;100838.34;5034961;28;66518;-47
2023/07/13 01:24:48;;;;;;;8.88;7.97;;;;;;;31.73;62.70;100827.63;5019566;28;70220;-45
2023/07/13 01:27:27;;;;;;;8.88;8.18;;;;;;;31.48;62.75;100796.03;5037838;28;66347;-44
2023/07/13 01:30:03;;;;;;;8.48;7.75;;;;;;;31.75;63.04;100839.09;5022546;28;70309;-45
2023/07/13 01:32:36;;;;;;;8.30;7.70;;;;;;;31.78;63.05;100844.06;5020385;28;66216;-46
2023/07/13 01:35:08;;;;;;;8.32;7.65;;;;;;;31.79;62.96;100845.75;5050986;28;69362;-45
2023/07/13 01:37:40;;;;;;;9.27;7.30;;;;;;;31.80;62.86;100841.97;5033073;28;66264;-45
2023/07/13 01:40:12;;;;;;;8.18;7.47;;;;;;;31.80;62.70;100841.97;5034910;28;70383;-44
2023/07/13 01:42:44;;;;;;;7.45;6.78;;;;;;;31.79;62.98;100830.28;5034148;28;65279;-45
2023/07/13 01:45:15;;;;;;;9.07;7.28;;;;;;;31.85;62.64;100844.81;5033690;28;70246;-45
2023/07/13 01:47:47;;;;;;;7.90;7.22;;;;;;;31.80;62.95;100826.50;5032281;28;66338;-44
2023/07/13 01:50:19;;;;;;;7.25;6.65;;;;;;;31.84;62.51;100818.72;5034733;28;69467;-45
2023/07/13 01:52:51;;;;;;;7.65;7.05;;;;;;;31.87;62.64;100820.97;5036055;28;66175;-44
2023/07/13 01:55:23;;;;;;;7.47;6.82;;;;;;;31.92;62.45;100823.88;5036150;28;70117;-45
2023/07/13 01:57:54;;;;;;;8.70;6.53;;;;;;;31.94;62.66;100816.34;5034917;28;66880;-45
2023/07/13 02:00:25;;;;;;;6.75;6.35;;;;;;;31.92;62.65;100823.06;5047178;28;69379;-44
2023/07/13 02:02:57;;;;;;;6.72;6.10;;;;;;;31.94;62.76;100816.34;5034848;28;66618;-46
2023/07/13 02:05:28;;;;;;;6.32;5.93;;;;;;;31.98;62.63;100812.13;5038468;28;70843;-44
2023/07/13 02:08:00;;;;;;;7.35;6.65;;;;;;;32.00;62.64;100809.19;5038749;28;66536;-44
2023/07/13 02:10:32;;;;;;;6.43;5.93;;;;;;;31.98;62.75;100801.28;5039073;28;69930;-46
2023/07/13 02:13:08;;;;;;;7.95;5.97;;;;;;;32.03;62.78;100804.09;5022280;28;66121;-44
2023/07/13 02:15:43;;;;;;;6.32;5.82;;;;;;;32.08;62.60;100800.72;5034674;28;70433;-46
2023/07/13 02:18:16;;;;;;;6.95;6.28;;;;;;;31.98;62.50;100785.00;5032569;28;66813;-45
2023/07/13 02:20:48;;;;;;;5.45;4.95;;;;;;;32.01;62.50;100789.97;5032031;28;70457;-44
2023/07/13 02:23:19;;;;;;;5.88;5.47;;;;;;;32.11;62.40;100796.72;5030821;28;65366;-46
2023/07/13 02:25:55;;;;;;;;;;;;;;;31.77;63.97;100788.16;5032985;28;70607;-56
2023/07/13 02:28:26;;;;;;;6.13;5.63;;;;;;;32.05;62.48;100777.56;5037464;28;67029;-45
2023/07/13 02:31:06;;;;;;;5.90;5.47;;;;;;;31.51;62.83;100691.72;5052146;28;70177;-47
2023/07/13 02:33:38;;;;;;;6.10;5.53;;;;;;;32.10;62.53;100773.38;5052310;28;65524;-44
2023/07/13 02:36:10;;;;;;;7.70;5.63;;;;;;;32.17;62.42;100784.94;5034837;28;71211;-46
2023/07/13 02:38:43;;;;;;;5.85;5.35;;;;;;;32.04;62.35;100751.50;5032271;28;66881;-45
2023/07/13 02:41:14;;;;;;;;;;;;;;;31.88;64.32;100779.25;5047120;28;70556;-44
2023/07/13 02:43:46;;;;;;;5.78;5.28;;;;;;;32.00;62.64;100742.16;5033187;28;67186;-45
2023/07/13 02:46:19;;;;;;;5.68;5.28;;;;;;;32.00;62.58;100730.50;5034596;28;70050;-46
2023/07/13 02:48:53;;;;;;;6.00;5.50;;;;;;;32.30;62.51;100765.72;5033035;28;66991;-45
2023/07/13 02:51:24;;;;;;;6.20;4.95;;;;;;;32.28;62.37;100757.00;5033780;28;69864;-44
2023/07/13 02:53:56;;;;;;;7.13;5.53;;;;;;;32.33;62.39;100759.84;5033992;28;65657;-44
2023/07/13 02:56:30;;;;;;;6.00;5.57;;;;;;;31.90;62.29;100684.06;5049477;28;70345;-44
2023/07/13 02:59:02;;;;;;;5.15;4.75;;;;;;;31.92;62.32;100682.81;5033779;28;66616;-45
2023/07/13 03:01:35;;;;;;;5.40;4.82;;;;;;;32.40;62.39;100747.00;5033079;28;69057;-45
2023/07/13 03:04:06;;;;;;;7.30;5.10;;;;;;;32.42;62.28;100744.03;5049922;28;65895;-45
2023/07/13 03:06:38;;;;;;;5.45;5.05;;;;;;;32.45;62.28;100744.38;5031470;28;70154;-45
2023/07/13 03:09:12;;;;;;;5.38;4.90;;;;;;;32.49;62.33;100748.31;5034096;28;65750;-45
2023/07/13 03:11:48;;;;;;;8.50;4.72;;;;;;;32.50;62.10;100743.72;5032958;28;70146;-44
2023/07/13 03:14:25;;;;;;;4.78;4.45;;;;;;;32.55;62.50;100745.75;5032526;28;66098;-45
2023/07/13 03:16:57;;;;;;;5.30;4.32;;;;;;;32.52;62.51;100736.19;5035760;28;70245;-44
2023/07/13 03:19:32;;;;;;;4.65;4.25;;;;;;;32.54;62.05;100730.50;5032312;28;66397;-44
2023/07/13 03:22:05;;;;;;;5.75;4.55;;;;;;;32.65;62.38;100740.53;5032213;28;70119;-44
2023/07/13 03:24:39;;;;;;;4.72;4.15;;;;;;;32.65;62.45;100735.94;5027629;28;66480;-44
2023/07/13 03:27:11;;;;;;;5.75;4.13;;;;;;;32.25;62.33;100648.88;5038451;28;69902;-44
2023/07/13 03:29:45;;;;;;;4.07;3.78;;;;;;;32.51;62.22;100680.19;5031083;28;65274;-45
2023/07/13 03:32:19;;;;;;;7.03;3.92;;;;;;;32.61;62.31;100690.47;5029801;28;70340;-45
2023/07/13 03:34:50;;;;;;;4.43;3.83;;;;;;;32.74;62.24;100722.00;5044148;28;66327;-44
2023/07/13 03:37:22;;;;;;;3.88;3.58;;;;;;;32.75;62.49;100723.66;5037274;28;70140;-44
2023/07/13 03:39:53;;;;;;;;;;;;;;;32.46;63.98;100715.41;5024466;28;65659;-44
2023/07/13 03:42:25;;;;;;;3.75;3.45;;;;;;;32.79;62.14;100703.94;5035435;28;70382;-44
2023/07/13 03:44:57;;;;;;;3.90;3.60;;;;;;;32.81;62.13;100699.06;5039775;28;66614;-44
2023/07/13 03:47:28;;;;;;;;;;;;;;;32.54;64.27;100697.91;5035911;28;69915;-43
2023/07/13 03:50:00;;;;;;;3.88;3.47;;;;;;;32.79;62.48;100684.94;5033501;28;65868;-44
2023/07/13 03:52:32;;;;;;;3.92;3.50;;;;;;;32.90;62.17;100689.53;5023947;28;70453;-45
2023/07/13 03:55:04;;;;;;;6.07;3.90;;;;;;;32.87;62.12;100673.66;5030748;28;65720;-44
2023/07/13 03:57:36;;;;;;;4.22;3.83;;;;;;;32.97;62.26;100683.13;5034832;28;69885;-44
2023/07/13 04:00:11;;;;;;;7.43;4.20;;;;;;;32.97;62.21;100683.94;5050007;28;66641;-44
2023/07/13 04:02:47;;;;;;;3.97;3.60;;;;;;;32.93;62.04;100671.88;5040029;28;69669;-46
2023/07/13 04:05:18;;;;;;;5.40;3.95;;;;;;;33.00;62.31;100682.66;5048511;28;65334;-45
2023/07/13 04:07:50;;;;;;;4.18;3.78;;;;;;;32.99;62.24;100681.81;5026236;28;69528;-45
2023/07/13 04:10:21;;;;;;;4.60;3.78;;;;;;;32.97;62.20;100678.50;5026424;28;66260;-44
2023/07/13 04:12:53;;;;;;;4.25;3.55;;;;;;;33.00;62.38;100677.25;5032927;28;70295;-44
2023/07/13 04:15:24;;;;;;;7.03;4.15;;;;;;;33.05;62.15;100680.88;5039342;28;64965;-45
2023/07/13 04:17:55;;;;;;;3.85;3.55;;;;;;;33.06;62.22;100668.13;5028707;28;70111;-45
2023/07/13 04:20:27;;;;;;;4.28;3.58;;;;;;;33.04;62.13;100662.94;5031464;28;66379;-45
2023/07/13 04:22:58;;;;;;;3.50;3.20;;;;;;;33.06;61.82;100673.56;5032398;28;70515;-44
2023/07/13 04:25:30;;;;;;;8.20;3.38;;;;;;;33.09;61.82;100665.72;5022522;28;65337;-44
2023/07/13 04:28:03;;;;;;;3.97;3.67;;;;;;;33.12;61.46;100664.44;5032359;28;69495;-45
2023/07/13 04:30:35;;;;;;;4.15;2.97;;;;;;;33.15;61.77;100672.94;5031774;28;66453;-45
2023/07/13 04:33:08;;;;;;;3.42;3.20;;;;;;;33.11;61.97;100658.19;5027216;28;70246;-45
2023/07/13 04:35:40;;;;;;;3.92;3.35;;;;;;;33.20;61.83;100665.94;5032971;28;66299;-45
2023/07/13 04:38:11;;;;;;;4.18;3.35;;;;;;;33.20;61.92;100671.38;5035388;28;69412;-45
2023/07/13 04:40:48;;;;;;;4.05;3.60;;;;;;;33.17;61.90;100659.09;5037345;28;66973;-45
2023/07/13 04:43:20;;;;;;;3.45;3.10;;;;;;;33.25;61.66;100658.72;5030671;28;69927;-45
2023/07/13 04:45:54;;;;;;;3.30;3.00;;;;;;;33.26;62.06;100665.81;5033674;28;65778;-44
2023/07/13 04:48:25;;;;;;;3.60;3.17;;;;;;;33.12;61.73;100638.06;5031876;28;70318;-45
2023/07/13 04:50:58;;;;;;;4.93;3.33;;;;;;;33.28;61.76;100651.97;5026680;28;66172;-44
2023/07/13 04:53:32;;;;;;;3.22;2.92;;;;;;;33.29;61.98;100651.75;5034560;28;70003;-45
2023/07/13 04:56:04;;;;;;;6.15;3.25;;;;;;;33.30;61.95;100647.94;5038274;28;66198;-45
2023/07/13 04:58:35;;;;;;;5.68;3.25;;;;;;;32.65;62.12;100534.13;5035647;28;71112;-44
2023/07/13 05:01:08;;;;;;;4.20;3.35;;;;;;;33.33;61.61;100633.88;5020264;28;65991;-44
2023/07/13 05:03:40;;;;;;;5.15;3.10;;;;;;;33.37;61.71;100639.63;5038888;28;69554;-45
2023/07/13 05:06:13;;;;;;;3.30;3.00;;;;;;;33.38;61.79;100630.44;5039839;28;66325;-45
2023/07/13 05:08:45;;;;;;;4.35;2.60;;;;;;;33.41;61.32;100634.56;5031074;28;70093;-45
2023/07/13 05:11:18;;;;;;;3.70;3.22;;;;;;;33.32;61.45;100621.34;5021667;28;65170;-45
2023/07/13 05:13:49;;;;;;;3.22;3.00;;;;;;;33.14;61.38;100573.44;5030995;28;69480;-45
2023/07/13 05:16:21;;;;;;;2.60;2.40;;;;;;;33.43;61.52;100613.38;5039675;28;66282;-45
2023/07/13 05:18:52;;;;;;;2.70;2.50;;;;;;;33.46;61.33;100621.03;5035594;28;69946;-46
2023/07/13 05:21:24;;;;;;;2.88;2.67;;;;;;;33.40;61.69;100597.53;5036141;28;66532;-45
2023/07/13 05:23:55;;;;;;;3.15;2.78;;;;;;;33.48;61.44;100616.19;5036033;28;70019;-47
2023/07/13 05:26:29;;;;;;;2.58;2.38;;;;;;;33.52;61.42;100614.66;5051897;28;65625;-45
2023/07/13 05:29:01;;;;;;;3.20;2.78;;;;;;;33.47;61.75;100590.06;5034139;28;69532;-46
2023/07/13 05:31:32;;;;;;;2.90;2.70;;;;;;;33.51;61.42;100596.66;5037044;28;66039;-46
2023/07/13 05:34:04;;;;;;;4.25;2.83;;;;;;;33.51;61.50;100591.22;5032790;28;70119;-46
2023/07/13 05:36:35;;;;;;;;;;;;;;;33.26;62.29;100589.69;5036926;28;65748;-44
2023/07/13 05:39:06;;;;;;;2.92;2.40;;;;;;;33.52;61.50;100582.00;5033022;28;70680;-46
2023/07/13 05:41:38;;;;;;;3.15;2.90;;;;;;;33.55;61.21;100581.56;5041813;28;66287;-46
2023/07/13 05:44:09;;;;;;;2.97;2.78;;;;;;;33.58;61.31;100581.88;5034500;28;69364;-45
2023/07/13 05:46:41;;;;;;;3.08;2.88;;;;;;;33.58;61.44;100570.19;5026858;28;66098;-45
2023/07/13 05:49:12;;;;;;;3.15;2.35;;;;;;;33.62;61.36;100573.22;5034098;28;69821;-46
2023/07/13 05:51:44;;;;;;;3.83;2.45;;;;;;;33.56;61.21;100556.81;5030908;28;66111;-45
2023/07/13 05:54:15;;;;;;;2.47;2.28;;;;;;;33.63;61.58;100559.38;5028222;28;69887;-45
2023/07/13 05:56:47;;;;;;;3.20;2.88;;;;;;;33.63;61.24;100556.66;5031534;28;66117;-45
2023/07/13 05:59:18;;;;;;;4.85;2.65;;;;;;;33.50;61.17;100527.84;5035784;28;69826;-44
2023/07/13 06:01:52;;;;;;;;;;;;;;;33.36;62.78;100557.25;5038678;28;67148;-46
2023/07/13 06:04:23;;;;;;;2.78;2.30;;;;;;;33.48;61.39;100515.56;5018252;28;69881;-46
2023/07/13 06:06:54;;;;;;;3.08;2.88;;;;;;;33.69;61.26;100535.81;5034095;28;66215;-44
2023/07/13 06:09:25;;;;;;;7.80;2.60;;;;;;;33.58;61.39;100519.31;5031609;28;69591;-44
2023/07/13 06:11:57;;;;;;;3.55;2.88;;;;;;;33.71;61.28;100530.94;5036444;28;66464;-44
2023/07/13 06:14:28;;;;;;;3.10;2.80;;;;;;;33.70;61.08;100521.13;5031685;28;70250;-44
2023/07/13 06:17:00;;;;;;;2.53;2.33;;;;;;;33.76;61.31;100529.09;5035958;28;65381;-45
2023/07/13 06:19:31;;;;;;;2.45;2.25;;;;;;;33.78;61.16;100516.09;5040843;28;69893;-44
2023/07/13 06:22:03;;;;;;;3.40;2.65;;;;;;;33.81;60.98;100512.88;5029062;28;67121;-44
2023/07/13 06:24:34;;;;;;;2.83;2.63;;;;;;;33.83;61.03;100500.94;5029266;28;69945;-44
2023/07/13 06:27:06;;;;;;;3.35;2.70;;;;;;;33.87;60.82;100491.19;5034864;28;66027;-44
2023/07/13 06:29:37;;;;;;;3.70;2.90;;;;;;;33.83;61.04;100474.53;5036546;28;70579;-44
2023/07/13 06:32:09;;;;;;;4.45;2.35;;;;;;;33.94;60.95;100480.97;5028144;28;65897;-45
2023/07/13 06:34:40;;;;;;;2.63;2.42;;;;;;;33.92;60.76;100461.31;5035355;28;70063;-45
2023/07/13 06:37:12;;;;;;;2.58;2.20;;;;;;;33.97;60.64;100453.25;5039835;28;66334;-45
2023/07/13 06:39:44;;;;;;;2.63;2.42;;;;;;;33.96;60.31;100440.69;5038622;28;69217;-44
2023/07/13 06:42:17;;;;;;;4.15;2.78;;;;;;;33.48;60.54;100368.75;5024586;28;66068;-45
2023/07/13 06:44:49;;;;;;;2.75;2.53;;;;;;;34.06;60.52;100457.19;5035938;28;69983;-45
2023/07/13 06:47:20;;;;;;;3.63;2.33;;;;;;;34.06;60.69;100457.19;5026398;28;65647;-44
2023/07/13 06:49:51;;;;;;;;;;;;;;;33.77;61.30;100454.59;5038697;28;70133;-44
2023/07/13 06:52:22;;;;;;;6.15;2.30;;;;;;;33.95;60.95;100437.16;5031342;28;65896;-45
2023/07/13 06:54:54;;;;;;;2.80;2.45;;;;;;;34.06;60.88;100443.59;5025411;28;68963;-45
2023/07/13 06:57:26;;;;;;;5.32;2.20;;;;;;;34.09;60.15;100444.97;5035610;28;66123;-45
2023/07/13 06:59:57;;;;;;;3.83;2.83;;;;;;;33.99;60.39;100397.50;5040362;28;70100;-45
2023/07/13 07:02:29;;;;;;;3.08;1.90;;;;;;;34.15;60.47;100422.19;5032148;28;65564;-45
2023/07/13 07:05:01;;;;;;;4.35;2.75;;;;;;;34.15;59.99;100423.00;5028080;28;68953;-45
2023/07/13 07:07:32;;;;;;;;;;;;;;;33.88;60.71;100436.53;5038855;28;65863;-45
2023/07/13 07:10:03;;;;;;;2.28;2.08;;;;;;;34.16;59.88;100435.56;5032900;28;70222;-46
2023/07/13 07:12:35;;;;;;;3.08;2.42;;;;;;;34.14;59.95;100415.94;5029669;28;65807;-45
2023/07/13 07:15:06;;;;;;;2.47;2.28;;;;;;;34.05;60.32;100387.53;5029752;28;69988;-45
2023/07/13 07:17:38;;;;;;;2.03;1.90;;;;;;;34.24;59.88;100410.63;5034251;28;66234;-45
2023/07/13 07:20:10;;;;;;;2.15;1.90;;;;;;;34.23;60.20;100403.50;5027129;28;69748;-44
2023/07/13 07:22:41;;;;;;;3.42;2.03;;;;;;;34.25;59.78;100395.09;5036124;28;65462;-45
2023/07/13 07:25:13;;;;;;;2.33;2.13;;;;;;;34.26;59.68;100385.84;5040525;28;69972;-46
2023/07/13 07:27:45;;;;;;;2.38;2.00;;;;;;;34.28;60.14;100369.25;5037194;28;65374;-44
2023/07/13 07:30:19;;;;;;;3.97;2.15;;;;;;;34.22;59.54;100341.97;5033626;28;70516;-46
2023/07/13 07:32:53;;;;;;;2.25;1.90;;;;;;;34.21;59.89;100334.91;5030824;28;66586;-45
2023/07/13 07:35:26;;;;;;;2.38;2.00;;;;;;;34.32;59.71;100335.00;5035683;28;69180;-45
2023/07/13 07:38:02;;;;;;;4.10;2.03;;;;;;;34.34;59.90;100335.56;5032240;28;66828;-45
2023/07/13 07:40:36;;;;;;;;;;;;;;;34.05;60.72;100340.44;5038449;28;69108;-44
2023/07/13 07:43:13;;;;;;;2.38;2.00;;;;;;;34.21;59.67;100313.13;5032181;28;66458;-45
2023/07/13 07:45:45;;;;;;;1.90;1.75;;;;;;;34.30;59.46;100323.53;5030506;28;70026;-45
2023/07/13 07:48:17;;;;;;;2.88;2.67;;;;;;;34.18;60.08;100308.16;5027497;28;65576;-45
2023/07/13 07:50:48;;;;;;;;;;;;;;;34.08;60.45;100335.31;5037646;28;70140;-45
2023/07/13 07:53:20;;;;;;;2.03;1.80;;;;;;;34.31;60.00;100327.91;5027180;28;67572;-44
2023/07/13 07:55:51;;;;;;;2.97;2.30;;;;;;;34.32;59.86;100324.09;5040743;28;69090;-45
2023/07/13 07:58:25;;;;;;;2.42;2.20;;;;;;;34.38;59.91;100325.78;5036153;28;65990;-45
2023/07/13 08:01:06;;;;;;;4.85;2.30;;;;;;;34.19;59.73;100301.66;5020992;28;69780;-45
2023/07/13 08:03:40;;;;;;;3.83;2.40;;;;;;;34.28;59.92;100337.41;5026571;28;66572;-45
2023/07/13 08:06:14;;;;;;;2.20;1.95;;;;;;;34.32;59.59;100343.16;5031853;28;70113;-45
2023/07/13 08:09:06;;;;;;;2.30;1.90;;;;;;;34.37;59.79;100365.00;5034976;28;66559;-46
2023/07/13 08:11:37;;;;;;;2.63;2.42;;;;;;;34.34;59.65;100354.63;5035185;28;70153;-44
2023/07/13 08:14:11;;;;;;;6.65;2.22;;;;;;;34.39;59.83;100358.22;5033727;27;65820;-44
2023/07/13 08:16:43;;;;;;;5.13;2.65;;;;;;;34.40;59.44;100348.97;5032160;28;69422;-44
2023/07/13 08:19:14;;;;;;;2.40;2.20;;;;;;;34.41;59.56;100341.63;5033788;28;66009;-45
2023/07/13 08:21:48;;;;;;;1.90;1.80;;;;;;;34.37;59.92;100332.31;5033806;28;69438;-45
2023/07/13 08:24:22;;;;;;;2.50;1.67;;;;;;;34.44;59.64;100332.94;5031090;28;65635;-45
2023/07/13 08:26:53;;;;;;;5.55;2.33;;;;;;;34.45;59.43;100323.69;5033251;28;70544;-45
2023/07/13 08:29:24;;;;;;;2.90;2.08;;;;;;;34.45;59.36;100318.25;5033072;28;66847;-45
2023/07/13 08:31:58;;;;;;;2.55;2.35;;;;;;;34.35;59.40;100288.19;5033585;28;69596;-44
2023/07/13 08:34:29;;;;;;;3.60;2.25;;;;;;;34.46;59.44;100298.94;5031328;28;66535;-45
2023/07/13 08:37:01;;;;;;;2.50;2.30;;;;;;;34.43;59.61;100306.78;5033702;28;68819;-45
2023/07/13 08:39:33;;;;;;;2.30;1.92;;;;;;;34.50;59.73;100333.81;5031906;28;67746;-46
2023/07/13 08:42:20;;;;;;;4.70;2.45;;;;;;;34.33;60.07;100317.59;5030033;28;70620;-46
2023/07/13 08:45:10;;;;;;;3.65;2.95;;;;;;;34.49;59.34;100346.59;5033581;28;65552;-44
2023/07/13 08:47:47;;;;;;;5.15;2.55;;;;;;;33.98;59.75;100258.94;5031393;28;70113;-44
2023/07/13 08:50:22;;;;;;;2.63;2.42;;;;;;;34.32;59.13;100302.31;5029818;28;66163;-45
2023/07/13 08:52:56;;;;;;;2.50;2.30;;;;;;;34.35;59.80;100312.69;5031879;28;69263;-46
2023/07/13 08:55:37;;;;;;;3.65;2.47;;;;;;;34.36;59.80;100322.53;5032785;28;66586;-45
2023/07/13 08:58:16;;;;;;;2.50;2.30;;;;;;;34.35;59.63;100320.84;5032809;28;70415;-45
2023/07/13 09:01:00;;;;;;;2.80;2.08;;;;;;;34.52;59.81;100339.81;5047911;28;66619;-45
2023/07/13 09:03:41;;;;;;;4.80;2.47;;;;;;;33.97;59.65;100271.75;5028830;28;68906;-45
2023/07/13 09:06:15;;;;;;;3.55;2.33;;;;;;;34.51;59.30;100365.41;5027882;28;66190;-45
2023/07/13 09:09:07;;;;;;;3.20;2.90;;;;;;;34.42;59.15;100378.66;5034062;28;70355;-45
2023/07/13 09:11:59;;;;;;;4.03;2.65;;;;;;;34.50;59.42;100416.34;5037207;28;65370;-45
2023/07/13 09:14:53;;;;;;;2.92;2.72;;;;;;;34.38;59.41;100431.97;5038188;28;69972;-45
2023/07/13 09:17:42;;;;;;;4.80;2.75;;;;;;;33.65;59.97;100303.47;5031986;28;66013;-45
2023/07/13 09:20:35;;;;;;;3.80;3.50;;;;;;;34.32;60.15;100419.41;5032283;28;70289;-45
2023/07/13 09:23:20;;;;;;;4.00;3.00;;;;;;;33.81;59.68;100319.72;5026359;28;65545;-45
2023/07/13 09:25:56;;;;;;;3.40;3.10;;;;;;;33.94;60.01;100317.69;5024642;28;69479;-44
2023/07/13 09:28:35;;;;;;;3.38;3.03;;;;;;;33.97;59.57;100319.91;5039654;28;66596;-47
2023/07/13 09:31:14;;;;;;;3.15;2.85;;;;;;;34.44;59.75;100376.53;5027334;28;69807;-46
2023/07/13 09:33:46;;;;;;;3.88;3.15;;;;;;;34.42;60.00;100373.22;5036915;28;65392;-46
2023/07/13 09:36:31;;;;;;;5.80;3.65;;;;;;;34.36;59.76;100387.88;5032998;28;69945;-45
2023/07/13 09:39:25;;;;;;;3.42;3.13;;;;;;;34.37;59.65;100403.13;5028922;28;65506;-44
2023/07/13 09:42:12;;;;;;;4.10;3.65;;;;;;;34.33;59.74;100431.94;5032010;28;70299;-45
2023/07/13 09:44:56;;;;;;;4.03;3.72;;;;;;;34.31;59.51;100448.53;5044868;28;65875;-45
2023/07/13 09:47:30;;;;;;;3.22;2.95;;;;;;;33.77;60.32;100367.56;5030971;28;70192;-45
2023/07/13 09:50:06;;;;;;;4.93;3.25;;;;;;;33.78;59.89;100369.19;5032751;28;66309;-45
2023/07/13 09:52:49;;;;;;;3.83;3.53;;;;;;;34.30;59.92;100467.81;5026380;28;69974;-46
2023/07/13 09:55:30;;;;;;;4.10;3.50;;;;;;;33.31;59.89;100309.78;5030537;28;66496;-46
2023/07/13 09:58:22;;;;;;;5.75;3.55;;;;;;;34.25;59.87;100466.69;5032468;28;70097;-45
2023/07/13 10:01:00;;;;;;;6.43;3.22;;;;;;;34.29;60.02;100471.63;5033938;28;65621;-45
2023/07/13 10:03:37;;;;;;;9.93;3.67;;;;;;;33.64;59.69;100357.03;5039317;28;70117;-45
2023/07/13 10:06:21;;;;;;;3.80;3.50;;;;;;;34.22;60.08;100450.06;5041367;27;65629;-46
2023/07/13 10:08:58;;;;;;;3.90;3.60;;;;;;;34.13;60.07;100444.22;5036433;28;69356;-45
2023/07/13 10:11:31;;;;;;;3.50;3.25;;;;;;;34.19;59.87;100475.06;5040885;28;66354;-45
2023/07/13 10:14:11;;;;;;;5.47;4.10;;;;;;;33.87;62.36;100507.50;5030206;28;69898;-46
2023/07/13 10:16:45;;;;;;;6.38;3.90;;;;;;;33.11;62.72;100429.91;5037115;28;66341;-46
2023/07/13 10:19:27;;;;;;;4.10;3.70;;;;;;;33.64;63.42;100541.97;5035448;28;69951;-47
2023/07/13 10:22:00;;;;;;;;;;;;;;;33.36;64.71;100545.56;5024009;28;65391;-48
2023/07/13 10:24:37;;;;;;;7.75;4.85;;;;;;;33.51;64.34;100532.22;5037952;28;70107;-50
2023/07/13 10:27:35;;;;;;;5.47;4.90;;;;;;;33.45;64.56;100554.13;5039419;28;66078;-47
2023/07/13 10:30:39;;;;;;;7.55;5.20;;;;;;;33.47;64.61;100552.00;5037258;28;70200;-45
2023/07/13 10:33:13;;;;;;;4.53;3.97;;;;;;;32.75;64.15;100482.75;5036422;28;66202;-44
2023/07/13 10:35:46;;;;;;;11.38;3.90;;;;;;;32.74;65.18;100559.88;5034414;28;69964;-44
2023/07/13 10:38:24;;;;;;;7.03;3.03;;;;;;;31.97;65.96;100468.63;5034670;28;65680;-48
2023/07/13 10:41:11;;;;;;;3.33;3.00;;;;;;;32.64;66.53;100537.94;5030935;28;70898;-47
2023/07/13 10:43:46;;;;;;;6.40;3.38;;;;;;;33.12;64.38;100528.53;5034062;28;66254;-47
2023/07/13 10:46:22;;;;;;;6.85;3.45;;;;;;;33.31;63.62;100538.13;5031758;28;69910;-47
2023/07/13 10:49:01;;;;;;;6.82;2.75;;;;;;;32.85;63.65;100436.75;5030652;28;67095;-47
2023/07/13 10:51:33;;;;;;;4.18;3.15;;;;;;;33.37;63.19;100520.84;5049031;28;70002;-46
2023/07/13 10:54:27;;;;;;;6.47;3.70;;;;;;;33.50;64.23;100536.00;5033073;28;65414;-48
2023/07/13 10:57:19;;;;;;;5.18;3.33;;;;;;;33.47;64.43;100535.69;5035531;28;69879;-47
2023/07/13 11:00:04;;;;;;;4.53;3.80;;;;;;;33.61;64.13;100531.59;5035360;28;66075;-47
2023/07/13 11:02:36;;;;;;;5.70;2.90;;;;;;;33.59;63.16;100517.41;5034008;28;69721;-48
2023/07/13 11:05:28;;;;;;;9.35;3.95;;;;;;;33.18;64.75;100484.06;5033764;28;65857;-47
2023/07/13 11:08:22;;;;;;;7.45;4.35;;;;;;;33.44;65.17;100542.44;5033898;28;69064;-47
2023/07/13 11:10:56;;;;;;;6.93;4.35;;;;;;;33.24;64.40;100526.59;5035398;28;65693;-48
2023/07/13 11:13:45;;;;;;;7.55;4.70;;;;;;;33.43;65.50;100584.28;5014699;28;69270;-49
2023/07/13 11:16:16;;;;;;;7.30;5.22;;;;;;;33.75;64.62;100630.03;5025612;28;64689;-49
2023/07/13 11:18:54;;;;;;;;;;;;;;;33.47;67.26;100628.16;5024339;28;70204;-48
2023/07/13 11:21:30;;;;;;;8.13;4.22;;;;;;;33.71;65.82;100624.25;5021207;28;65685;-48
2023/07/13 11:24:13;;;;;;;7.93;4.68;;;;;;;33.68;66.49;100611.13;5030406;28;68996;-47
2023/07/13 11:26:53;;;;;;;6.30;4.10;;;;;;;33.75;66.19;100598.19;5035218;28;65071;-47
2023/07/13 11:29:37;;;;;;;5.38;4.30;;;;;;;33.71;66.17;100591.63;5033460;28;70629;-47
2023/07/13 11:32:30;;;;;;;6.35;4.65;;;;;;;33.65;66.50;100598.03;5034999;28;66919;-47
2023/07/13 11:35:01;;;;;;;8.80;5.32;;;;;;;33.79;64.78;100609.41;5034541;28;70578;-48
2023/07/13 11:37:33;;;;;;;5.47;4.97;;;;;;;33.79;65.38;100604.81;5038376;28;66352;-47
2023/07/13 11:40:06;;;;;;;6.65;5.00;;;;;;;33.79;64.92;100610.25;5037494;28;69653;-47
2023/07/13 11:42:37;;;;;;;7.68;5.43;;;;;;;33.79;64.80;100614.84;5032073;28;66224;-48
2023/07/13 11:45:22;;;;;;;6.05;5.55;;;;;;;33.11;65.40;100527.72;5037953;28;69922;-47
2023/07/13 11:48:23;;;;;;;7.65;6.60;;;;;;;33.09;65.53;100526.31;5031029;28;66328;-48
2023/07/13 11:51:06;;;;;;;6.43;5.82;;;;;;;33.74;65.48;100648.25;5028304;28;70024;-47
2023/07/13 11:53:49;;;;;;;6.20;5.70;;;;;;;33.74;65.88;100648.25;5036879;28;67161;-47
2023/07/13 11:56:20;;;;;;;7.10;6.57;;;;;;;33.68;65.34;100641.03;5020990;28;69795;-48
2023/07/13 11:58:55;;;;;;;7.22;6.63;;;;;;;33.66;65.21;100643.22;5030279;28;66373;-47
2023/07/13 12:01:32;;;;;;;7.43;6.72;;;;;;;33.74;65.33;100666.44;5037215;28;70362;-46
2023/07/13 12:04:06;;;;;;;6.07;5.47;;;;;;;33.28;69.04;100685.41;5038121;28;66310;-47